Time;durP1;ratioP1;P1;durP2;ratioP2;P2;SDS_P1;SDS_P2;PMS_P1;PMS_P2;Temp;Humidity;BMP_temperature;BMP_pressure;BME280_temperature;BME280_humidity;BME280_pressure;Samples;Min_cycle;Max_cycle;Signal;HPM_P1;HPM_P2
2023/08/19 00:02:12;;;;;;;;;;;;;;;-144.99;nan;52329.88;5042919;28;19998;-67
2023/08/19 00:04:41;;;;;;;;;;;;;;;-144.99;nan;52289.13;5034194;28;20443;-67
2023/08/19 00:07:07;;;;;;;;;;;;;;;-144.99;nan;52317.66;5041158;28;19947;-67
2023/08/19 00:09:36;;;;;;;;;;;;;;;-144.99;nan;52303.38;5044810;28;20060;-67
2023/08/19 00:12:03;;;;;;;;;;;;;;;-144.99;nan;52333.94;5037571;28;20060;-70
2023/08/19 00:14:29;;;;;;;;;;;;;;;-144.99;nan;52354.34;5035439;28;20003;-69
2023/08/19 00:16:56;;;;;;;;;;;;;;;-144.99;nan;52317.66;5039883;28;19987;-68
2023/08/19 00:19:24;;;;;;;;;;;;;;;-144.99;nan;52293.19;5041069;28;19954;-69
2023/08/19 00:21:50;;;;;;;;;;;;;;;-144.99;nan;52309.50;5043132;28;19991;-69
2023/08/19 00:24:17;;;;;;;;;;;;;;;-144.99;nan;52338.03;5051209;22;19979;-67
2023/08/19 00:26:43;;;;;;;;;;;;;;;-144.99;nan;52317.66;5026309;28;19951;-66
2023/08/19 00:29:10;;;;;;;;;;;;;;;-144.99;nan;52336.00;5025720;28;19988;-65
2023/08/19 00:31:39;;;;;;;;;;;;;;;-144.99;nan;52311.53;5027819;28;20063;-68
2023/08/19 00:34:06;;;;;;;;;;;;;;;-144.99;nan;52323.75;5042791;28;19963;-65
2023/08/19 00:36:33;;;;;;;;;;;;;;;-144.99;nan;52331.91;5037734;28;19947;-64
2023/08/19 00:39:00;;;;;;;;;;;;;;;-144.99;nan;52317.66;5056270;28;19967;-65
2023/08/19 00:41:26;;;;;;;;;;;;;;;-144.99;nan;52344.16;5050721;28;19961;-65
2023/08/19 00:43:54;;;;;;;;;;;;;;;-144.99;nan;52338.03;5057023;28;19973;-67
2023/08/19 00:46:21;;;;;;;;;;;;;;;-144.99;nan;52338.03;5058122;28;19974;-68
2023/08/19 00:48:47;;;;;;;;;;;;;;;-144.99;nan;52333.94;5051167;28;19945;-67
2023/08/19 00:51:14;;;;;;;;;;;;;;;-144.99;nan;52342.09;5053950;28;19969;-67
2023/08/19 00:53:42;;;;;;;;;;;;;;;-144.99;nan;52317.66;5050159;28;19953;-66
2023/08/19 00:56:09;;;;;;;;;;;;;;;-144.99;nan;52293.19;5053173;28;19952;-66
2023/08/19 00:58:35;;;;;;;;;;;;;;;-144.99;nan;52342.09;5050214;28;19948;-69
2023/08/19 01:01:02;;;;;;;;;;;;;;;-144.99;nan;52338.03;5041330;28;20315;-65
2023/08/19 01:03:28;;;;;;;;;;;;;;;-144.99;nan;52399.19;5045966;28;20068;-66
2023/08/19 01:06:02;;;;;;;;;;;;;;;-144.99;nan;52293.19;5047666;28;20424;-65
2023/08/19 01:08:33;;;;;;;;;;;;;;;-144.99;nan;52354.34;5051089;28;19951;-67
2023/08/19 01:11:04;;;;;;;;;;;;;;;-144.99;nan;52297.25;5049485;28;20022;-64
2023/08/19 01:13:33;;;;;;;;;;;;;;;-144.99;nan;52309.50;5046729;28;20111;-65
2023/08/19 01:16:04;;;;;;;;;;;;;;;-144.99;nan;52338.03;5045486;28;19946;-68
2023/08/19 01:18:32;;;;;;;;;;;;;;;-144.99;nan;52333.94;5052191;28;19948;-66
2023/08/19 01:20:59;;;;;;;;;;;;;;;-144.99;nan;52321.72;5056893;28;19944;-69
2023/08/19 01:23:30;;;;;;;;;;;;;;;-144.99;nan;52354.34;5056120;28;19964;-68
2023/08/19 01:25:58;;;;;;;;;;;;;;;-144.99;nan;52325.81;5056501;28;19939;-66
2023/08/19 01:28:25;;;;;;;;;;;;;;;-144.99;nan;52338.03;5066757;28;19962;-66
2023/08/19 01:30:51;;;;;;;;;;;;;;;-144.99;nan;52297.25;5055380;28;19955;-65
2023/08/19 01:33:19;;;;;;;;;;;;;;;-144.99;nan;52325.81;5067019;28;20023;-65
2023/08/19 01:35:50;;;;;;;;;;;;;;;-144.99;nan;52303.38;5057840;28;19954;-66
2023/08/19 01:38:19;;;;;;;;;;;;;;;-144.99;nan;52360.44;5063755;28;19944;-66
2023/08/19 01:40:45;;;;;;;;;;;;;;;-144.99;nan;52297.25;5059279;28;19956;-66
2023/08/19 01:43:13;;;;;;;;;;;;;;;-144.99;nan;52313.56;5068976;28;19957;-69
2023/08/19 01:45:40;;;;;;;;;;;;;;;-144.99;nan;52317.66;5055719;28;19956;-67
2023/08/19 01:48:06;;;;;;;;;;;;;;;-144.99;nan;52305.41;5054579;28;19944;-67
2023/08/19 01:50:33;;;;;;;;;;;;;;;-144.99;nan;52321.72;5054792;28;19993;-67
2023/08/19 01:52:59;;;;;;;;;;;;;;;-144.99;nan;52350.25;5051261;28;20173;-63
2023/08/19 01:55:26;;;;;;;;;;;;;;;-144.99;nan;52354.34;5047964;28;20410;-64
2023/08/19 01:57:52;;;;;;;;;;;;;;;-144.99;nan;52315.59;5044187;28;20399;-64
2023/08/19 02:00:20;;;;;;;;;;;;;;;-144.99;nan;52358.41;5057071;28;20357;-64
2023/08/19 02:02:47;;;;;;;;;;;;;;;-144.99;nan;52309.50;5053781;28;20433;-64
2023/08/19 02:05:14;;;;;;;;;;;;;;;-144.99;nan;52321.72;5053186;28;19949;-66
2023/08/19 02:07:40;;;;;;;;;;;;;;;-144.99;nan;52364.53;5054731;28;20000;-63
2023/08/19 02:10:07;;;;;;;;;;;;;;;-144.99;nan;52342.09;5048665;28;19940;-64
2023/08/19 02:12:34;;;;;;;;;;;;;;;-144.99;nan;52321.72;5060632;28;19963;-63
2023/08/19 02:15:00;;;;;;;;;;;;;;;-144.99;nan;52313.56;5053486;28;19945;-64
2023/08/19 02:17:28;;;;;;;;;;;;;;;-144.99;nan;52321.72;5053277;28;19946;-66
2023/08/19 02:19:55;;;;;;;;;;;;;;;-144.99;nan;52329.88;5047875;28;19995;-65
2023/08/19 02:22:21;;;;;;;;;;;;;;;-144.99;nan;52354.34;5049690;28;19966;-65
2023/08/19 02:24:48;;;;;;;;;;;;;;;-144.99;nan;52325.81;5054751;28;19952;-65
2023/08/19 02:27:15;;;;;;;;;;;;;;;-144.99;nan;52331.91;5045062;28;19951;-65
2023/08/19 02:29:41;;;;;;;;;;;;;;;-144.99;nan;52338.03;5052635;28;19992;-65
2023/08/19 02:32:07;;;;;;;;;;;;;;;-144.99;nan;52323.75;5051994;28;20058;-65
2023/08/19 02:34:35;;;;;;;;;;;;;;;-144.99;nan;52338.03;5042866;28;19987;-63
2023/08/19 02:37:02;;;;;;;;;;;;;;;-144.99;nan;52305.41;5043070;28;19994;-63
2023/08/19 02:39:29;;;;;;;;;;;;;;;-144.99;nan;52352.28;5048366;28;19950;-64
2023/08/19 02:41:55;;;;;;;;;;;;;;;-144.99;nan;52358.41;5039018;28;20068;-63
2023/08/19 02:44:22;;;;;;;;;;;;;;;-144.99;nan;52336.00;5046699;28;20047;-64
2023/08/19 02:46:48;;;;;;;;;;;;;;;-144.99;nan;52338.03;5056694;28;19956;-66
2023/08/19 02:49:15;;;;;;;;;;;;;;;-144.99;nan;52342.09;5049065;28;20206;-66
2023/08/19 02:51:42;;;;;;;;;;;;;;;-144.99;nan;52319.69;5057271;28;20016;-66
2023/08/19 02:54:09;;;;;;;;;;;;;;;-144.99;nan;52346.19;5051912;28;19946;-66
2023/08/19 02:56:35;;;;;;;;;;;;;;;-144.99;nan;52386.94;5050004;28;19948;-65
2023/08/19 02:59:02;;;;;;;;;;;;;;;-144.99;nan;52297.25;5048203;28;19994;-64
2023/08/19 03:01:28;;;;;;;;;;;;;;;-144.99;nan;52325.81;5045265;28;19950;-63
2023/08/19 03:03:55;;;;;;;;;;;;;;;-144.99;nan;52301.34;5037491;28;20429;-63
2023/08/19 03:06:21;;;;;;;;;;;;;;;-144.99;nan;52346.19;5048528;28;19954;-63
2023/08/19 03:08:49;;;;;;;;;;;;;;;-144.99;nan;52333.94;5048276;28;20451;-63
2023/08/19 03:11:16;;;;;;;;;;;;;;;-144.99;nan;52352.28;5041638;28;19947;-64
2023/08/19 03:13:42;;;;;;;;;;;;;;;-144.99;nan;52309.50;5044966;28;19987;-63
2023/08/19 03:16:08;;;;;;;;;;;;;;;-144.99;nan;52362.50;5036990;28;19976;-63
2023/08/19 03:18:35;;;;;;;;;;;;;;;-144.99;nan;52370.63;5044753;28;20354;-66
2023/08/19 03:21:01;;;;;;;;;;;;;;;-144.99;nan;52331.91;5025921;28;19986;-65
2023/08/19 03:23:28;;;;;;;;;;;;;;;-144.99;nan;52301.34;5036699;28;19966;-64
2023/08/19 03:25:57;;;;;;;;;;;;;;;-144.99;nan;52348.22;5042106;28;19996;-64
2023/08/19 03:28:24;;;;;;;;;;;;;;;-144.99;nan;52346.19;5042453;28;19967;-62
2023/08/19 03:30:50;;;;;;;;;;;;;;;-144.99;nan;52354.34;5045779;28;19946;-62
2023/08/19 03:33:17;;;;;;;;;;;;;;;-144.99;nan;52378.78;5034030;28;19971;-62
2023/08/19 03:35:43;;;;;;;;;;;;;;;-144.99;nan;52346.19;5031110;28;20424;-62
2023/08/19 03:38:10;;;;;;;;;;;;;;;-144.99;nan;52378.78;5041887;28;20037;-62
2023/08/19 03:40:37;;;;;;;;;;;;;;;-144.99;nan;52350.25;5045577;28;19992;-63
2023/08/19 03:43:05;;;;;;;;;;;;;;;-144.99;nan;52350.25;5035081;28;20077;-61
2023/08/19 03:45:33;;;;;;;;;;;;;;;-144.99;nan;52356.38;5044322;28;19997;-59
2023/08/19 03:48:00;;;;;;;;;;;;;;;-144.99;nan;52319.69;5044383;28;20388;-59
2023/08/19 03:50:26;;;;;;;;;;;;;;;-144.99;nan;52362.50;5031812;28;19995;-57
2023/08/19 03:52:53;;;;;;;;;;;;;;;-144.99;nan;52370.63;5038680;28;20104;-58
2023/08/19 03:55:19;;;;;;;;;;;;;;;-144.99;nan;52342.09;5034558;28;20045;-59
2023/08/19 03:57:46;;;;;;;;;;;;;;;-144.99;nan;52338.03;5040904;28;20047;-59
2023/08/19 04:00:14;;;;;;;;;;;;;;;-144.99;nan;52378.78;5044158;28;20370;-64
2023/08/19 04:02:41;;;;;;;;;;;;;;;-144.99;nan;52354.34;5045026;28;20330;-63
2023/08/19 04:05:09;;;;;;;;;;;;;;;-144.99;nan;52350.25;5040082;28;19948;-63
2023/08/19 04:07:36;;;;;;;;;;;;;;;-144.99;nan;52344.16;5037824;28;19947;-62
2023/08/19 04:10:03;;;;;;;;;;;;;;;-144.99;nan;52376.75;5040505;28;20000;-60
2023/08/19 04:12:30;;;;;;;;;;;;;;;-144.99;nan;52303.38;5036336;28;20014;-60
2023/08/19 04:14:56;;;;;;;;;;;;;;;-144.99;nan;52346.19;5038513;28;20042;-60
2023/08/19 04:17:24;;;;;;;;;;;;;;;-144.99;nan;52356.38;5040545;28;19948;-59
2023/08/19 04:19:51;;;;;;;;;;;;;;;-144.99;nan;52297.25;5049102;28;19952;-60
2023/08/19 04:22:17;;;;;;;;;;;;;;;-144.99;nan;52366.56;5047430;28;20397;-60
2023/08/19 04:24:49;;;;;;;;;;;;;;;-144.99;nan;52350.25;5041039;28;20008;-60
2023/08/19 04:27:16;;;;;;;;;;;;;;;-144.99;nan;52358.41;5040797;28;19989;-60
2023/08/19 04:29:42;;;;;;;;;;;;;;;-144.99;nan;52354.34;5043242;28;20304;-61
2023/08/19 04:32:09;;;;;;;;;;;;;;;-144.99;nan;52342.09;5038319;28;20079;-62
2023/08/19 04:34:36;;;;;;;;;;;;;;;-144.99;nan;52333.94;5046797;28;20391;-67
2023/08/19 04:37:03;;;;;;;;;;;;;;;-144.99;nan;52321.72;5047131;28;19970;-67
2023/08/19 04:39:30;;;;;;;;;;;;;;;-144.99;nan;52342.09;5041959;28;19949;-67
2023/08/19 04:41:56;;;;;;;;;;;;;;;-144.99;nan;52382.88;5050330;28;20006;-69
2023/08/19 04:44:23;;;;;;;;;;;;;;;-144.99;nan;52346.19;5043983;28;20472;-67
2023/08/19 04:46:49;;;;;;;;;;;;;;;-144.99;nan;52338.03;5052370;28;20359;-66
2023/08/19 04:49:16;;;;;;;;;;;;;;;-144.99;nan;52378.78;5051899;28;19988;-67
2023/08/19 04:51:44;;;;;;;;;;;;;;;-144.99;nan;52350.25;5044067;28;19969;-67
2023/08/19 04:54:10;;;;;;;;;;;;;;;-144.99;nan;52342.09;5044226;28;20022;-66
2023/08/19 04:56:37;;;;;;;;;;;;;;;-144.99;nan;52301.34;5038079;28;19992;-69
2023/08/19 04:59:03;;;;;;;;;;;;;;;-144.99;nan;52329.88;5039475;28;19942;-67
2023/08/19 05:01:30;;;;;;;;;;;;;;;-144.99;nan;52352.28;5048242;28;19971;-67
2023/08/19 05:03:56;;;;;;;;;;;;;;;-144.99;nan;52329.88;5042247;28;19958;-69
2023/08/19 05:06:23;;;;;;;;;;;;;;;-144.99;nan;52362.50;5049275;28;20384;-69
2023/08/19 05:08:51;;;;;;;;;;;;;;;-144.99;nan;52362.50;5041393;28;20345;-69
2023/08/19 05:11:17;;;;;;;;;;;;;;;-144.99;nan;52344.16;5046918;28;19947;-67
2023/08/19 05:13:44;;;;;;;;;;;;;;;-144.99;nan;52366.56;5044201;28;20479;-64
2023/08/19 05:16:10;;;;;;;;;;;;;;;-144.99;nan;52348.22;5040975;28;19941;-65
2023/08/19 05:18:37;;;;;;;;;;;;;;;-144.99;nan;52354.34;5041122;28;20047;-67
2023/08/19 05:21:03;;;;;;;;;;;;;;;-144.99;nan;52317.66;5032237;28;19946;-66
2023/08/19 05:23:30;;;;;;;;;;;;;;;-144.99;nan;52366.56;5040041;28;19962;-64
2023/08/19 05:25:58;;;;;;;;;;;;;;;-144.99;nan;52329.88;5041695;28;20033;-65
2023/08/19 05:28:24;;;;;;;;;;;;;;;-144.99;nan;52342.09;5042821;28;20272;-66
2023/08/19 05:30:51;;;;;;;;;;;;;;;-144.99;nan;52344.16;5039675;28;20063;-65
2023/08/19 05:33:17;;;;;;;;;;;;;;;-144.99;nan;52366.56;5038033;28;20153;-64
2023/08/19 05:35:44;;;;;;;;;;;;;;;-144.99;nan;52305.41;5045273;28;20024;-63
2023/08/19 05:38:10;;;;;;;;;;;;;;;-144.99;nan;52378.78;5044351;28;19992;-63
2023/08/19 05:40:37;;;;;;;;;;;;;;;-144.99;nan;52321.72;5036836;28;20387;-62
2023/08/19 05:43:04;;;;;;;;;;;;;;;-144.99;nan;52317.66;5040594;28;20002;-61
2023/08/19 05:45:33;;;;;;;;;;;;;;;-144.99;nan;52301.34;5039171;28;20034;-64
2023/08/19 05:47:59;;;;;;;;;;;;;;;-144.99;nan;52329.88;5042335;28;20034;-65
2023/08/19 05:50:26;;;;;;;;;;;;;;;-144.99;nan;52319.69;5043973;28;20416;-65
2023/08/19 05:52:53;;;;;;;;;;;;;;;-144.99;nan;52317.66;5047794;28;19979;-63
2023/08/19 05:55:19;;;;;;;;;;;;;;;-144.99;nan;52317.66;5042738;28;20087;-63
2023/08/19 05:57:45;;;;;;;;;;;;;;;-144.99;nan;52319.69;5040982;28;20429;-65
2023/08/19 06:00:14;;;;;;;;;;;;;;;-144.99;nan;52280.97;5046622;28;20050;-64
2023/08/19 06:02:40;;;;;;;;;;;;;;;-144.99;nan;52325.81;5038541;28;20249;-63
2023/08/19 06:05:07;;;;;;;;;;;;;;;-144.99;nan;52325.81;5040907;28;19996;-62
2023/08/19 06:07:33;;;;;;;;;;;;;;;-144.99;nan;52317.66;5039920;28;20375;-63
2023/08/19 06:10:00;;;;;;;;;;;;;;;-144.99;nan;52305.41;5039751;28;20016;-63
2023/08/19 06:12:26;;;;;;;;;;;;;;;-144.99;nan;52354.34;5049184;28;20032;-65
2023/08/19 06:14:53;;;;;;;;;;;;;;;-144.99;nan;52346.19;5041700;28;20409;-64
2023/08/19 06:17:21;;;;;;;;;;;;;;;-144.99;nan;52305.41;5041503;28;19950;-62
2023/08/19 06:19:47;;;;;;;;;;;;;;;-144.99;nan;52350.25;5038215;28;20004;-64
2023/08/19 06:22:14;;;;;;;;;;;;;;;-144.99;nan;52285.03;5045196;28;19967;-71
2023/08/19 06:24:40;;;;;;;;;;;;;;;-144.99;nan;52325.81;5037995;28;20397;-68
2023/08/19 06:27:07;;;;;;;;;;;;;;;-144.99;nan;52313.56;5046495;28;20000;-68
2023/08/19 06:29:33;;;;;;;;;;;;;;;-144.99;nan;52301.34;5048004;28;19954;-68
2023/08/19 06:32:00;;;;;;;;;;;;;;;-144.99;nan;52321.72;5038698;28;20431;-69
2023/08/19 06:34:28;;;;;;;;;;;;;;;-144.99;nan;52313.56;5045411;28;20389;-68
2023/08/19 06:36:57;;;;;;;;;;;;;;;-144.99;nan;52252.44;5041234;28;20014;-70
2023/08/19 06:39:25;;;;;;;;;;;;;;;-144.99;nan;52287.06;5036320;28;20215;-69
2023/08/19 06:41:55;;;;;;;;;;;;;;;-144.99;nan;52342.09;5047137;28;19964;-67
2023/08/19 06:44:22;;;;;;;;;;;;;;;-144.99;nan;52301.34;5034221;28;19956;-67
2023/08/19 06:46:50;;;;;;;;;;;;;;;-144.99;nan;52303.38;5038941;28;20461;-64
2023/08/19 06:49:17;;;;;;;;;;;;;;;-144.99;nan;52272.81;5040057;28;19950;-65
2023/08/19 06:51:45;;;;;;;;;;;;;;;-144.99;nan;52305.41;5034244;28;20523;-62
2023/08/19 06:54:12;;;;;;;;;;;;;;;-144.99;nan;52289.13;5037293;28;20500;-62
2023/08/19 06:56:46;;;;;;;;;;;;;;;-144.99;nan;52285.03;5034734;28;20048;-65
2023/08/19 06:59:18;;;;;;;;;;;;;;;-144.99;nan;52285.03;5044638;28;19952;-69
2023/08/19 07:01:47;;;;;;;;;;;;;;;-144.99;nan;52285.03;5031256;28;20504;-68
2023/08/19 07:04:14;;;;;;;;;;;;;;;-144.99;nan;52285.03;5034662;28;19944;-68
2023/08/19 07:06:40;;;;;;;;;;;;;;;-144.99;nan;52289.13;5063305;22;19947;-70
2023/08/19 07:09:11;;;;;;;;;;;;;;;-144.99;nan;52321.72;5042290;28;20046;-69
2023/08/19 07:11:37;;;;;;;;;;;;;;;-144.99;nan;52301.34;5051350;28;20512;-68
2023/08/19 07:14:04;;;;;;;;;;;;;;;-144.99;nan;52250.38;5028230;28;20086;-68
2023/08/19 07:16:32;;;;;;;;;;;;;;;-144.99;nan;52283.00;5027280;28;20037;-69
2023/08/19 07:19:02;;;;;;;;;;;;;;;-144.99;nan;52317.66;5032901;28;20378;-66
2023/08/19 07:21:29;;;;;;;;;;;;;;;-144.99;nan;52297.25;5034438;28;19949;-68
2023/08/19 07:23:59;;;;;;;;;;;;;;;-144.99;nan;52297.25;5026222;28;19945;-69
2023/08/19 07:26:27;;;;;;;;;;;;;;;-144.99;nan;52285.03;5032109;28;19954;-65
2023/08/19 07:28:54;;;;;;;;;;;;;;;-144.99;nan;52268.72;5038787;28;19976;-65
2023/08/19 07:31:21;;;;;;;;;;;;;;;-144.99;nan;52285.03;5025721;28;19948;-66
2023/08/19 07:33:48;;;;;;;;;;;;;;;-144.99;nan;52240.19;5026410;28;19960;-66
2023/08/19 07:36:14;;;;;;;;;;;;;;;-144.99;nan;52262.63;5027690;28;19945;-66
2023/08/19 07:38:41;;;;;;;;;;;;;;;-144.99;nan;52262.63;5034801;28;20035;-69
2023/08/19 07:41:07;;;;;;;;;;;;;;;-144.99;nan;52254.47;5035940;28;20065;-69
2023/08/19 07:43:35;;;;;;;;;;;;;;;-144.99;nan;52240.19;5025041;28;20055;-69
2023/08/19 07:46:01;;;;;;;;;;;;;;;-144.99;nan;52240.19;5026338;28;19950;-69
2023/08/19 07:48:28;;;;;;;;;;;;;;;-144.99;nan;52244.28;5023791;28;20091;-70
2023/08/19 07:50:54;;;;;;;;;;;;;;;-144.99;nan;52264.66;5024328;28;20060;-70
2023/08/19 07:53:21;;;;;;;;;;;;;;;-144.99;nan;52248.34;5033914;28;20060;-69
2023/08/19 07:55:48;;;;;;;;;;;;;;;-144.99;nan;52260.56;5031662;28;20050;-70
2023/08/19 07:58:15;;;;;;;;;;;;;;;-144.99;nan;52285.03;5028324;28;20040;-68
2023/08/19 08:00:43;;;;;;;;;;;;;;;-144.99;nan;52244.28;5028316;28;20012;-69
2023/08/19 08:03:09;;;;;;;;;;;;;;;-144.99;nan;52219.81;5035577;28;20072;-70
2023/08/19 08:05:36;;;;;;;;;;;;;;;-144.99;nan;52219.81;5025370;28;20460;-69
2023/08/19 08:08:03;;;;;;;;;;;;;;;-144.99;nan;52250.38;5021415;28;20002;-70
2023/08/19 08:10:29;;;;;;;;;;;;;;;-144.99;nan;52244.28;5022224;28;20039;-70
2023/08/19 08:12:56;;;;;;;;;;;;;;;-144.99;nan;52252.44;5022074;28;19965;-69
2023/08/19 08:15:22;;;;;;;;;;;;;;;-144.99;nan;52199.44;5032917;28;19953;-70
2023/08/19 08:17:50;;;;;;;;;;;;;;;-144.99;nan;52217.78;5026629;28;19978;-69
2023/08/19 08:20:17;;;;;;;;;;;;;;;-144.99;nan;52215.75;5029175;28;20368;-69
2023/08/19 08:22:43;;;;;;;;;;;;;;;-144.99;nan;52240.19;5032368;28;20055;-69
2023/08/19 08:25:10;;;;;;;;;;;;;;;-144.99;nan;52205.53;5032755;28;19946;-70
2023/08/19 08:27:37;;;;;;;;;;;;;;;-144.99;nan;52227.97;5031275;28;19950;-70
2023/08/19 08:30:05;;;;;;;;;;;;;;;-144.99;nan;52219.81;5019842;28;20466;-69
2023/08/19 08:32:31;;;;;;;;;;;;;;;-144.99;nan;52219.81;5029783;28;19975;-70
2023/08/19 08:35:00;;;;;;;;;;;;;;;-144.99;nan;52199.44;5027009;28;20063;-69
2023/08/19 08:37:26;;;;;;;;;;;;;;;-144.99;nan;52211.66;5034988;28;19977;-70
2023/08/19 08:39:52;;;;;;;;;;;;;;;-144.99;nan;52219.81;5026544;28;20040;-70
2023/08/19 08:42:20;;;;;;;;;;;;;;;-144.99;nan;52187.19;5027203;28;19997;-70
2023/08/19 08:44:47;;;;;;;;;;;;;;;-144.99;nan;52172.94;5026939;28;20346;-70
2023/08/19 08:47:15;;;;;;;;;;;;;;;-144.99;nan;52191.28;5027970;28;20378;-70
2023/08/19 08:49:42;;;;;;;;;;;;;;;-144.99;nan;52166.81;5025211;28;19948;-70
2023/08/19 08:52:10;;;;;;;;;;;;;;;-144.99;nan;52164.78;5024412;28;20019;-70
2023/08/19 08:54:37;;;;;;;;;;;;;;;-144.99;nan;52205.53;5017750;28;20069;-69
2023/08/19 08:57:04;;;;;;;;;;;;;;;-144.99;nan;52183.13;5018461;28;20008;-69
2023/08/19 08:59:30;;;;;;;;;;;;;;;-144.99;nan;52174.97;5014411;28;19951;-69
2023/08/19 09:01:58;;;;;;;;;;;;;;;-144.99;nan;52195.34;5016360;28;20062;-69
2023/08/19 09:04:27;;;;;;;;;;;;;;;-144.99;nan;52236.13;5014892;28;19982;-69
2023/08/19 09:06:57;;;;;;;;;;;;;;;-144.99;nan;52232.03;5014099;28;20047;-69
2023/08/19 09:09:25;;;;;;;;;;;;;;;-144.99;nan;52203.50;5015744;28;20634;-69
2023/08/19 09:11:53;;;;;;;;;;;;;;;-144.99;nan;52223.88;5016558;28;20064;-69
2023/08/19 09:14:23;;;;;;;;;;;;;;;-144.99;nan;52191.28;5016993;28;20032;-69
2023/08/19 09:16:50;;;;;;;;;;;;;;;-144.99;nan;52199.44;5019812;28;19984;-69
2023/08/19 09:19:17;;;;;;;;;;;;;;;-144.99;nan;52217.78;5023713;28;20036;-69
2023/08/19 09:21:43;;;;;;;;;;;;;;;-144.99;nan;52199.44;5037010;28;20001;-69
2023/08/19 09:24:10;;;;;;;;;;;;;;;-144.99;nan;52170.91;5038216;28;19948;-70
2023/08/19 09:26:38;;;;;;;;;;;;;;;-144.99;nan;52191.28;5029581;28;19988;-70
2023/08/19 09:29:05;;;;;;;;;;;;;;;-144.99;nan;52179.06;5027357;28;20043;-70
2023/08/19 09:31:32;;;;;;;;;;;;;;;-144.99;nan;52191.28;5036565;28;20049;-70
2023/08/19 09:33:59;;;;;;;;;;;;;;;-144.99;nan;52195.34;5032487;28;20717;-68
2023/08/19 09:36:26;;;;;;;;;;;;;;;-144.99;nan;52170.91;5039538;28;20047;-69
2023/08/19 09:38:53;;;;;;;;;;;;;;;-144.99;nan;52199.44;5019786;28;19992;-69
2023/08/19 09:41:19;;;;;;;;;;;;;;;-144.99;nan;52164.78;5018867;28;19981;-69
2023/08/19 09:43:48;;;;;;;;;;;;;;;-144.99;nan;52150.53;5017007;28;20366;-69
2023/08/19 09:46:15;;;;;;;;;;;;;;;-144.99;nan;52160.72;5015528;28;20114;-70
2023/08/19 09:48:41;;;;;;;;;;;;;;;-144.99;nan;52162.75;5017635;28;20533;-69
2023/08/19 09:51:08;;;;;;;;;;;;;;;-144.99;nan;52168.84;5021805;28;19942;-69
2023/08/19 09:53:37;;;;;;;;;;;;;;;-144.99;nan;52146.44;5019958;28;19964;-69
2023/08/19 09:56:04;;;;;;;;;;;;;;;-144.99;nan;52130.13;5021907;28;20005;-70
2023/08/19 09:58:30;;;;;;;;;;;;;;;-144.99;nan;52146.44;5016865;28;20397;-69
2023/08/19 10:00:58;;;;;;;;;;;;;;;-144.99;nan;52126.06;5016196;28;20034;-70
2023/08/19 10:03:25;;;;;;;;;;;;;;;-144.99;nan;52134.22;5017695;28;20044;-70
2023/08/19 10:05:53;;;;;;;;;;;;;;;-144.99;nan;52154.59;5019567;28;20149;-68
2023/08/19 10:08:20;;;;;;;;;;;;;;;-144.99;nan;52117.91;5020016;28;19951;-69
2023/08/19 10:10:47;;;;;;;;;;;;;;;-144.99;nan;52146.44;5017603;28;19982;-70
2023/08/19 10:13:15;;;;;;;;;;;;;;;-144.99;nan;52115.88;5017662;28;20501;-70
2023/08/19 10:15:42;;;;;;;;;;;;;;;-144.99;nan;52146.44;5020036;28;20018;-71
2023/08/19 10:18:12;;;;;;;;;;;;;;;-144.99;nan;52105.69;5020927;28;20127;-70
2023/08/19 10:20:40;;;;;;;;;;;;;;;-144.99;nan;52113.84;5016976;28;20054;-70
2023/08/19 10:23:08;;;;;;;;;;;;;;;-144.99;nan;52121.97;5016747;28;19968;-70
2023/08/19 10:25:34;;;;;;;;;;;;;;;-144.99;nan;52109.75;5014271;28;20001;-71
2023/08/19 10:28:22;;;;;;;;;;;;;;;-144.99;nan;52089.38;5026741;28;19951;-70
2023/08/19 10:31:03;;;;;;;;;;;;;;;-144.99;nan;52105.69;5025805;28;19949;-68
2023/08/19 10:33:36;;;;;;;;;;;;;;;-144.99;nan;52146.44;5028146;28;20017;-67
2023/08/19 10:36:03;;;;;;;;;;;;;;;-144.99;nan;52109.75;5030190;28;20023;-68
2023/08/19 10:38:40;;;;;;;;;;;;;;;-144.99;nan;52093.44;5028560;28;20047;-68
2023/08/19 10:41:15;;;;;;;;;;;;;;;-144.99;nan;52073.06;5027702;28;20024;-68
2023/08/19 10:43:52;;;;;;;;;;;;;;;-144.99;nan;52060.84;5037584;28;19973;-68
2023/08/19 10:46:19;;;;;;;;;;;;;;;-144.99;nan;52117.91;5031247;28;19949;-68
2023/08/19 10:48:47;;;;;;;;;;;;;;;-144.99;nan;52146.44;5025091;28;20342;-69
2023/08/19 10:51:14;;;;;;;;;;;;;;;-144.99;nan;52166.81;5029575;28;20387;-68
2023/08/19 10:53:48;;;;;;;;;;;;;;;-144.99;nan;52160.72;5029090;28;20297;-68
2023/08/19 10:56:15;;;;;;;;;;;;;;;-144.99;nan;52138.28;5028620;28;19946;-68
2023/08/19 10:58:42;;;;;;;;;;;;;;;-144.99;nan;52162.75;5024632;28;20121;-68
2023/08/19 11:01:09;;;;;;;;;;;;;;;-144.99;nan;52166.81;5029113;28;20463;-68
2023/08/19 11:03:35;;;;;;;;;;;;;;;-144.99;nan;52179.06;5030892;28;19949;-68
2023/08/19 11:06:06;;;;;;;;;;;;;;;-144.99;nan;52195.34;5032686;28;20029;-67
2023/08/19 11:08:40;;;;;;;;;;;;;;;-144.99;nan;52183.13;5029822;28;19951;-67
2023/08/19 11:11:07;;;;;;;;;;;;;;;-144.99;nan;52203.50;5039579;28;19978;-68
2023/08/19 11:13:34;;;;;;;;;;;;;;;-144.99;nan;52185.16;5030161;28;19998;-68
2023/08/19 11:16:05;;;;;;;;;;;;;;;-144.99;nan;52234.09;5022611;28;20410;-58
2023/08/19 11:18:32;;;;;;;;;;;;;;;-144.99;nan;52170.91;5022159;28;20407;-69
2023/08/19 11:20:58;;;;;;;;;;;;;;;-144.99;nan;52211.66;5018778;28;20470;-69
2023/08/19 11:23:29;;;;;;;;;;;;;;;-144.99;nan;52187.19;5026430;28;20061;-68
2023/08/19 11:25:56;;;;;;;;;;;;;;;-144.99;nan;52207.59;5029235;28;20023;-69
2023/08/19 11:28:22;;;;;;;;;;;;;;;-144.99;nan;52223.88;5027129;28;20094;-69
2023/08/19 11:30:49;;;;;;;;;;;;;;;-144.99;nan;52207.59;5025843;28;20850;-70
2023/08/19 11:33:18;;;;;;;;;;;;;;;-144.99;nan;52191.28;5027818;28;20074;-69
2023/08/19 11:35:45;;;;;;;;;;;;;;;-144.99;nan;52189.25;5028802;28;20432;-69
2023/08/19 11:38:15;;;;;;;;;;;;;;;-144.99;nan;52211.66;5025463;28;19948;-69
2023/08/19 11:40:43;;;;;;;;;;;;;;;-144.99;nan;52199.44;5032966;28;19943;-69
2023/08/19 11:43:11;;;;;;;;;;;;;;;-144.99;nan;52179.06;5038996;28;19966;-69
2023/08/19 11:45:38;;;;;;;;;;;;;;;-144.99;nan;52211.66;5040497;28;19992;-71
2023/08/19 11:48:05;;;;;;;;;;;;;;;-144.99;nan;52172.94;5025446;28;19939;-71
2023/08/19 11:50:34;;;;;;;;;;;;;;;-144.99;nan;52211.66;5023882;28;20453;-73
2023/08/19 11:53:01;;;;;;;;;;;;;;;-144.99;nan;52223.88;5020446;28;20062;-71
2023/08/19 11:55:27;;;;;;;;;;;;;;;-144.99;nan;52248.34;5017372;28;20354;-71
2023/08/19 11:57:55;;;;;;;;;;;;;;;-144.99;nan;52240.19;5019837;28;20381;-70
2023/08/19 12:00:25;;;;;;;;;;;;;;;-144.99;nan;52227.97;5017601;28;20041;-70
2023/08/19 12:02:52;;;;;;;;;;;;;;;-144.99;nan;52197.41;5016860;28;20055;-74
2023/08/19 12:05:22;;;;;;;;;;;;;;;-144.99;nan;52195.34;5015842;28;20360;-74
2023/08/19 12:07:48;;;;;;;;;;;;;;;-144.99;nan;52219.81;5011718;28;20264;-74
2023/08/19 12:10:15;;;;;;;;;;;;;;;-144.99;nan;52244.28;5012883;28;20028;-75
2023/08/19 12:12:43;;;;;;;;;;;;;;;-144.99;nan;52185.16;5012625;28;20048;-71
2023/08/19 12:15:11;;;;;;;;;;;;;;;-144.99;nan;52219.81;5018318;28;20558;-72
2023/08/19 12:17:38;;;;;;;;;;;;;;;-144.99;nan;52240.19;5012207;28;20046;-73
2023/08/19 12:20:04;;;;;;;;;;;;;;;-144.99;nan;52236.13;5013111;28;19983;-69
2023/08/19 12:22:31;;;;;;;;;;;;;;;-144.99;nan;52223.88;5021586;28;20029;-71
2023/08/19 12:24:57;;;;;;;;;;;;;;;-144.99;nan;52223.88;5017898;28;20047;-72
2023/08/19 12:27:24;;;;;;;;;;;;;;;-144.99;nan;52252.44;5020307;28;20070;-72
2023/08/19 12:29:50;;;;;;;;;;;;;;;-144.99;nan;52240.19;5027659;28;19971;-72
2023/08/19 12:32:18;;;;;;;;;;;;;;;-144.99;nan;52236.13;5041707;28;20056;-72
2023/08/19 12:34:45;;;;;;;;;;;;;;;-144.99;nan;52195.34;5022590;28;20472;-71
2023/08/19 12:37:11;;;;;;;;;;;;;;;-144.99;nan;52215.75;5018097;28;20368;-72
2023/08/19 12:39:38;;;;;;;;;;;;;;;-144.99;nan;52162.75;5026417;28;20336;-72
2023/08/19 12:42:04;;;;;;;;;;;;;;;-144.99;nan;52203.50;5019777;28;20499;-71
2023/08/19 12:44:31;;;;;;;;;;;;;;;-144.99;nan;52213.69;5027708;28;20000;-71
2023/08/19 12:46:57;;;;;;;;;;;;;;;-144.99;nan;52205.53;5027536;28;20025;-71
2023/08/19 12:49:25;;;;;;;;;;;;;;;-144.99;nan;52227.97;5027540;28;20417;-72